Terminal Aerodrome Forecast
Issued by NWS Wilmington, NC

Home | Current Version | Previous Version | Text Only | Print | Product List | Glossary On
Versions: 1 2 3 4 5 6 7 8 9 10 11 12 13 14 15 16 17 18 19 20 21 22 23 24 25 26 27
726
FTUS42 KILM 041726
TAFFLO
TAF
KFLO 041726Z 0418/0518 29005KT P6SM SCT050
      TEMPO 0418/0422 BKN050
     FM050000 28003KT P6SM SCT070
     FM051200 31010KT P6SM SCT070=

USA.gov is the U.S. government's official web portal to all federal, state and local government web resources and services.